sensor_id;sensor_type;location;lat;lon;timestamp;P1;durP1;ratioP1;P2;durP2;ratioP2
75716;SDS011;64333;50.138;14.332;2023-12-28T00:00:13;16.10;;;8.52;;
75716;SDS011;64333;50.138;14.332;2023-12-28T00:02:39;15.95;;;8.43;;
75716;SDS011;64333;50.138;14.332;2023-12-28T00:05:05;16.40;;;8.02;;
75716;SDS011;64333;50.138;14.332;2023-12-28T00:07:31;13.05;;;7.20;;
75716;SDS011;64333;50.138;14.332;2023-12-28T00:09:57;9.48;;;6.13;;
75716;SDS011;64333;50.138;14.332;2023-12-28T00:12:22;10.40;;;5.53;;
75716;SDS011;64333;50.138;14.332;2023-12-28T00:14:47;9.35;;;5.60;;
75716;SDS011;64333;50.138;14.332;2023-12-28T00:17:13;7.63;;;5.18;;
75716;SDS011;64333;50.138;14.332;2023-12-28T00:19:39;9.77;;;6.20;;
75716;SDS011;64333;50.138;14.332;2023-12-28T00:22:04;10.93;;;5.28;;
75716;SDS011;64333;50.138;14.332;2023-12-28T00:24:30;9.73;;;5.88;;
75716;SDS011;64333;50.138;14.332;2023-12-28T00:26:55;9.77;;;6.22;;
75716;SDS011;64333;50.138;14.332;2023-12-28T00:29:20;12.63;;;6.90;;
75716;SDS011;64333;50.138;14.332;2023-12-28T00:31:46;13.20;;;7.68;;
75716;SDS011;64333;50.138;14.332;2023-12-28T00:34:11;16.17;;;8.02;;
75716;SDS011;64333;50.138;14.332;2023-12-28T00:36:36;13.48;;;6.95;;
75716;SDS011;64333;50.138;14.332;2023-12-28T00:39:02;14.27;;;8.10;;
75716;SDS011;64333;50.138;14.332;2023-12-28T00:41:28;14.65;;;8.20;;
75716;SDS011;64333;50.138;14.332;2023-12-28T00:43:53;13.60;;;8.38;;
75716;SDS011;64333;50.138;14.332;2023-12-28T00:46:18;15.35;;;9.43;;
75716;SDS011;64333;50.138;14.332;2023-12-28T00:48:44;18.08;;;8.43;;
75716;SDS011;64333;50.138;14.332;2023-12-28T00:51:09;13.85;;;7.70;;
75716;SDS011;64333;50.138;14.332;2023-12-28T00:53:35;23.70;;;11.18;;
75716;SDS011;64333;50.138;14.332;2023-12-28T00:56:00;25.25;;;13.23;;
75716;SDS011;64333;50.138;14.332;2023-12-28T00:58:25;22.35;;;12.00;;
75716;SDS011;64333;50.138;14.332;2023-12-28T01:00:51;20.45;;;11.57;;
75716;SDS011;64333;50.138;14.332;2023-12-28T01:03:18;21.35;;;11.52;;
75716;SDS011;64333;50.138;14.332;2023-12-28T01:05:45;20.55;;;10.98;;
75716;SDS011;64333;50.138;14.332;2023-12-28T01:08:12;18.55;;;11.35;;
75716;SDS011;64333;50.138;14.332;2023-12-28T01:10:38;19.60;;;9.32;;
75716;SDS011;64333;50.138;14.332;2023-12-28T01:13:03;15.88;;;9.05;;
75716;SDS011;64333;50.138;14.332;2023-12-28T01:15:28;15.45;;;8.38;;
75716;SDS011;64333;50.138;14.332;2023-12-28T01:17:54;14.40;;;7.68;;
75716;SDS011;64333;50.138;14.332;2023-12-28T01:20:19;16.08;;;7.13;;
75716;SDS011;64333;50.138;14.332;2023-12-28T01:22:45;12.38;;;7.10;;
75716;SDS011;64333;50.138;14.332;2023-12-28T01:25:10;16.63;;;9.55;;
75716;SDS011;64333;50.138;14.332;2023-12-28T01:27:35;13.35;;;7.63;;
75716;SDS011;64333;50.138;14.332;2023-12-28T01:30:01;15.73;;;8.98;;
75716;SDS011;64333;50.138;14.332;2023-12-28T01:32:26;15.43;;;8.23;;
75716;SDS011;64333;50.138;14.332;2023-12-28T01:34:52;14.73;;;8.80;;
75716;SDS011;64333;50.138;14.332;2023-12-28T01:37:17;15.23;;;8.05;;
75716;SDS011;64333;50.138;14.332;2023-12-28T01:39:42;11.32;;;7.57;;
75716;SDS011;64333;50.138;14.332;2023-12-28T01:42:08;13.55;;;7.57;;
75716;SDS011;64333;50.138;14.332;2023-12-28T01:44:34;13.65;;;6.72;;
75716;SDS011;64333;50.138;14.332;2023-12-28T01:46:59;11.68;;;6.82;;
75716;SDS011;64333;50.138;14.332;2023-12-28T01:49:25;15.63;;;7.47;;
75716;SDS011;64333;50.138;14.332;2023-12-28T01:51:51;8.32;;;5.20;;
75716;SDS011;64333;50.138;14.332;2023-12-28T01:54:16;12.25;;;6.05;;
75716;SDS011;64333;50.138;14.332;2023-12-28T01:56:42;8.32;;;5.38;;
75716;SDS011;64333;50.138;14.332;2023-12-28T01:59:09;11.38;;;5.63;;
75716;SDS011;64333;50.138;14.332;2023-12-28T02:01:34;9.07;;;5.88;;
75716;SDS011;64333;50.138;14.332;2023-12-28T02:04:00;10.10;;;6.57;;
75716;SDS011;64333;50.138;14.332;2023-12-28T02:06:26;10.93;;;6.22;;
75716;SDS011;64333;50.138;14.332;2023-12-28T02:08:51;8.60;;;5.50;;
75716;SDS011;64333;50.138;14.332;2023-12-28T02:11:17;9.73;;;5.65;;
75716;SDS011;64333;50.138;14.332;2023-12-28T02:13:44;8.73;;;5.38;;
75716;SDS011;64333;50.138;14.332;2023-12-28T02:16:17;7.82;;;4.97;;
75716;SDS011;64333;50.138;14.332;2023-12-28T02:18:56;7.75;;;5.35;;
75716;SDS011;64333;50.138;14.332;2023-12-28T02:21:28;11.10;;;5.32;;
75716;SDS011;64333;50.138;14.332;2023-12-28T02:23:56;9.77;;;4.93;;
75716;SDS011;64333;50.138;14.332;2023-12-28T02:26:21;13.48;;;7.40;;
75716;SDS011;64333;50.138;14.332;2023-12-28T02:28:47;9.80;;;5.70;;
75716;SDS011;64333;50.138;14.332;2023-12-28T02:31:14;10.30;;;5.93;;
75716;SDS011;64333;50.138;14.332;2023-12-28T02:34:22;9.80;;;5.70;;
75716;SDS011;64333;50.138;14.332;2023-12-28T02:36:41;9.93;;;5.63;;
75716;SDS011;64333;50.138;14.332;2023-12-28T02:39:10;10.35;;;5.70;;
75716;SDS011;64333;50.138;14.332;2023-12-28T02:41:39;11.85;;;5.97;;
75716;SDS011;64333;50.138;14.332;2023-12-28T02:44:04;11.40;;;6.10;;
75716;SDS011;64333;50.138;14.332;2023-12-28T02:46:30;10.40;;;5.78;;
75716;SDS011;64333;50.138;14.332;2023-12-28T02:48:55;13.45;;;7.80;;
75716;SDS011;64333;50.138;14.332;2023-12-28T02:51:22;16.02;;;7.70;;
75716;SDS011;64333;50.138;14.332;2023-12-28T02:53:47;16.58;;;8.18;;
75716;SDS011;64333;50.138;14.332;2023-12-28T02:56:13;12.48;;;7.30;;
75716;SDS011;64333;50.138;14.332;2023-12-28T02:58:38;8.63;;;5.80;;
75716;SDS011;64333;50.138;14.332;2023-12-28T03:01:03;18.05;;;10.18;;
75716;SDS011;64333;50.138;14.332;2023-12-28T03:03:29;10.10;;;6.55;;
75716;SDS011;64333;50.138;14.332;2023-12-28T03:05:54;12.77;;;7.55;;
75716;SDS011;64333;50.138;14.332;2023-12-28T03:08:19;12.82;;;6.72;;
75716;SDS011;64333;50.138;14.332;2023-12-28T03:10:45;9.75;;;6.72;;
75716;SDS011;64333;50.138;14.332;2023-12-28T03:13:10;11.05;;;6.35;;
75716;SDS011;64333;50.138;14.332;2023-12-28T03:15:35;10.02;;;6.68;;
75716;SDS011;64333;50.138;14.332;2023-12-28T03:18:01;11.52;;;6.30;;
75716;SDS011;64333;50.138;14.332;2023-12-28T03:20:26;15.60;;;8.57;;
75716;SDS011;64333;50.138;14.332;2023-12-28T03:22:51;15.50;;;7.55;;
75716;SDS011;64333;50.138;14.332;2023-12-28T03:25:17;12.05;;;7.45;;
75716;SDS011;64333;50.138;14.332;2023-12-28T03:27:42;12.05;;;7.50;;
75716;SDS011;64333;50.138;14.332;2023-12-28T03:30:08;14.52;;;7.75;;
75716;SDS011;64333;50.138;14.332;2023-12-28T03:32:34;14.43;;;8.20;;
75716;SDS011;64333;50.138;14.332;2023-12-28T03:34:59;14.73;;;7.80;;
75716;SDS011;64333;50.138;14.332;2023-12-28T03:37:24;15.68;;;8.98;;
75716;SDS011;64333;50.138;14.332;2023-12-28T03:39:50;18.50;;;10.55;;
75716;SDS011;64333;50.138;14.332;2023-12-28T03:42:15;43.35;;;21.20;;
75716;SDS011;64333;50.138;14.332;2023-12-28T03:44:41;20.60;;;10.60;;
75716;SDS011;64333;50.138;14.332;2023-12-28T03:47:06;16.77;;;9.98;;
75716;SDS011;64333;50.138;14.332;2023-12-28T03:49:32;19.23;;;9.20;;
75716;SDS011;64333;50.138;14.332;2023-12-28T03:51:57;15.68;;;8.90;;
75716;SDS011;64333;50.138;14.332;2023-12-28T03:54:23;17.23;;;8.80;;
75716;SDS011;64333;50.138;14.332;2023-12-28T03:56:48;15.00;;;7.47;;
75716;SDS011;64333;50.138;14.332;2023-12-28T03:59:13;11.23;;;6.50;;
75716;SDS011;64333;50.138;14.332;2023-12-28T04:01:42;11.20;;;7.10;;
75716;SDS011;64333;50.138;14.332;2023-12-28T04:04:07;17.05;;;8.05;;
75716;SDS011;64333;50.138;14.332;2023-12-28T04:06:33;17.33;;;8.05;;
75716;SDS011;64333;50.138;14.332;2023-12-28T04:08:59;17.52;;;8.85;;
75716;SDS011;64333;50.138;14.332;2023-12-28T04:11:24;15.98;;;8.10;;
75716;SDS011;64333;50.138;14.332;2023-12-28T04:13:49;13.00;;;6.30;;
75716;SDS011;64333;50.138;14.332;2023-12-28T04:16:16;14.38;;;7.35;;
75716;SDS011;64333;50.138;14.332;2023-12-28T04:18:44;10.18;;;5.65;;
75716;SDS011;64333;50.138;14.332;2023-12-28T04:21:10;8.57;;;4.38;;
75716;SDS011;64333;50.138;14.332;2023-12-28T04:23:37;8.57;;;4.82;;
75716;SDS011;64333;50.138;14.332;2023-12-28T04:26:03;9.80;;;5.40;;
75716;SDS011;64333;50.138;14.332;2023-12-28T04:28:29;12.35;;;6.15;;
75716;SDS011;64333;50.138;14.332;2023-12-28T04:30:54;10.43;;;5.50;;
75716;SDS011;64333;50.138;14.332;2023-12-28T04:33:20;11.27;;;6.05;;
75716;SDS011;64333;50.138;14.332;2023-12-28T04:35:45;9.60;;;4.05;;
75716;SDS011;64333;50.138;14.332;2023-12-28T04:38:11;7.85;;;3.80;;
75716;SDS011;64333;50.138;14.332;2023-12-28T04:40:37;8.18;;;4.00;;
75716;SDS011;64333;50.138;14.332;2023-12-28T04:43:03;9.93;;;5.38;;
75716;SDS011;64333;50.138;14.332;2023-12-28T04:45:28;10.40;;;5.05;;
75716;SDS011;64333;50.138;14.332;2023-12-28T04:47:53;6.57;;;3.33;;
75716;SDS011;64333;50.138;14.332;2023-12-28T04:50:19;6.32;;;3.40;;
75716;SDS011;64333;50.138;14.332;2023-12-28T04:52:44;4.95;;;2.85;;
75716;SDS011;64333;50.138;14.332;2023-12-28T04:55:10;4.38;;;2.55;;
75716;SDS011;64333;50.138;14.332;2023-12-28T04:57:35;9.50;;;5.13;;
75716;SDS011;64333;50.138;14.332;2023-12-28T05:00:00;10.75;;;6.22;;
75716;SDS011;64333;50.138;14.332;2023-12-28T05:02:26;12.00;;;6.13;;
75716;SDS011;64333;50.138;14.332;2023-12-28T05:04:52;12.00;;;6.93;;
75716;SDS011;64333;50.138;14.332;2023-12-28T05:07:17;9.30;;;5.93;;
75716;SDS011;64333;50.138;14.332;2023-12-28T05:09:42;11.35;;;5.63;;
75716;SDS011;64333;50.138;14.332;2023-12-28T05:12:08;7.80;;;4.38;;
75716;SDS011;64333;50.138;14.332;2023-12-28T05:14:33;6.55;;;3.63;;
75716;SDS011;64333;50.138;14.332;2023-12-28T05:16:58;5.82;;;3.28;;
75716;SDS011;64333;50.138;14.332;2023-12-28T05:19:24;7.03;;;4.00;;
75716;SDS011;64333;50.138;14.332;2023-12-28T05:21:49;9.75;;;4.50;;
75716;SDS011;64333;50.138;14.332;2023-12-28T05:24:15;9.85;;;5.75;;
75716;SDS011;64333;50.138;14.332;2023-12-28T05:26:40;8.43;;;5.80;;
75716;SDS011;64333;50.138;14.332;2023-12-28T05:29:06;9.38;;;5.30;;
75716;SDS011;64333;50.138;14.332;2023-12-28T05:31:31;7.00;;;4.50;;
75716;SDS011;64333;50.138;14.332;2023-12-28T05:33:56;6.35;;;3.72;;
75716;SDS011;64333;50.138;14.332;2023-12-28T05:36:24;9.23;;;4.85;;
75716;SDS011;64333;50.138;14.332;2023-12-28T05:38:50;7.78;;;4.20;;
75716;SDS011;64333;50.138;14.332;2023-12-28T05:41:15;6.53;;;4.28;;
75716;SDS011;64333;50.138;14.332;2023-12-28T05:43:41;8.90;;;5.55;;
75716;SDS011;64333;50.138;14.332;2023-12-28T05:46:06;8.05;;;4.10;;
75716;SDS011;64333;50.138;14.332;2023-12-28T05:48:32;4.55;;;2.92;;
75716;SDS011;64333;50.138;14.332;2023-12-28T05:50:57;3.45;;;2.65;;
75716;SDS011;64333;50.138;14.332;2023-12-28T05:53:23;3.67;;;2.13;;
75716;SDS011;64333;50.138;14.332;2023-12-28T05:55:49;4.30;;;2.28;;
75716;SDS011;64333;50.138;14.332;2023-12-28T05:58:14;4.97;;;2.50;;
75716;SDS011;64333;50.138;14.332;2023-12-28T06:00:40;4.35;;;2.38;;
75716;SDS011;64333;50.138;14.332;2023-12-28T06:03:05;4.95;;;2.40;;
75716;SDS011;64333;50.138;14.332;2023-12-28T06:05:31;4.07;;;2.75;;
75716;SDS011;64333;50.138;14.332;2023-12-28T06:07:56;3.95;;;2.63;;
75716;SDS011;64333;50.138;14.332;2023-12-28T06:10:22;4.40;;;2.50;;
75716;SDS011;64333;50.138;14.332;2023-12-28T06:12:47;4.60;;;2.67;;
75716;SDS011;64333;50.138;14.332;2023-12-28T06:15:13;3.75;;;2.40;;
75716;SDS011;64333;50.138;14.332;2023-12-28T06:17:38;3.30;;;2.78;;
75716;SDS011;64333;50.138;14.332;2023-12-28T06:20:04;4.80;;;2.00;;
75716;SDS011;64333;50.138;14.332;2023-12-28T06:22:30;3.95;;;2.42;;
75716;SDS011;64333;50.138;14.332;2023-12-28T06:24:55;3.40;;;2.28;;
75716;SDS011;64333;50.138;14.332;2023-12-28T06:27:21;3.05;;;2.05;;
75716;SDS011;64333;50.138;14.332;2023-12-28T06:29:48;2.35;;;1.85;;
75716;SDS011;64333;50.138;14.332;2023-12-28T06:32:14;2.65;;;2.05;;
75716;SDS011;64333;50.138;14.332;2023-12-28T06:34:39;3.08;;;1.90;;
75716;SDS011;64333;50.138;14.332;2023-12-28T06:37:05;2.80;;;2.47;;
75716;SDS011;64333;50.138;14.332;2023-12-28T06:39:30;3.60;;;2.00;;
75716;SDS011;64333;50.138;14.332;2023-12-28T06:41:55;3.85;;;2.42;;
75716;SDS011;64333;50.138;14.332;2023-12-28T06:44:21;3.33;;;2.50;;
75716;SDS011;64333;50.138;14.332;2023-12-28T06:46:46;3.60;;;2.15;;
75716;SDS011;64333;50.138;14.332;2023-12-28T06:49:11;4.18;;;1.92;;
75716;SDS011;64333;50.138;14.332;2023-12-28T06:51:37;3.97;;;1.92;;
75716;SDS011;64333;50.138;14.332;2023-12-28T06:54:02;4.00;;;2.40;;
75716;SDS011;64333;50.138;14.332;2023-12-28T06:56:28;3.53;;;2.20;;
75716;SDS011;64333;50.138;14.332;2023-12-28T06:58:54;2.42;;;1.92;;
75716;SDS011;64333;50.138;14.332;2023-12-28T07:01:19;2.90;;;1.98;;
75716;SDS011;64333;50.138;14.332;2023-12-28T07:03:45;3.60;;;1.65;;
75716;SDS011;64333;50.138;14.332;2023-12-28T07:06:10;2.95;;;2.10;;
75716;SDS011;64333;50.138;14.332;2023-12-28T07:08:35;3.00;;;2.10;;
75716;SDS011;64333;50.138;14.332;2023-12-28T07:11:01;3.92;;;1.80;;
75716;SDS011;64333;50.138;14.332;2023-12-28T07:13:27;2.10;;;1.75;;
75716;SDS011;64333;50.138;14.332;2023-12-28T07:15:52;2.55;;;1.85;;
75716;SDS011;64333;50.138;14.332;2023-12-28T07:18:18;3.85;;;2.03;;
75716;SDS011;64333;50.138;14.332;2023-12-28T07:20:44;3.28;;;1.65;;
75716;SDS011;64333;50.138;14.332;2023-12-28T07:23:09;3.75;;;1.98;;
75716;SDS011;64333;50.138;14.332;2023-12-28T07:25:35;2.97;;;1.80;;
75716;SDS011;64333;50.138;14.332;2023-12-28T07:28:00;4.22;;;2.08;;
75716;SDS011;64333;50.138;14.332;2023-12-28T07:30:26;3.78;;;2.22;;
75716;SDS011;64333;50.138;14.332;2023-12-28T07:32:51;4.57;;;2.28;;
75716;SDS011;64333;50.138;14.332;2023-12-28T07:35:17;3.38;;;1.83;;
75716;SDS011;64333;50.138;14.332;2023-12-28T07:37:43;2.25;;;1.88;;
75716;SDS011;64333;50.138;14.332;2023-12-28T07:40:09;2.50;;;1.60;;
75716;SDS011;64333;50.138;14.332;2023-12-28T07:42:36;2.60;;;2.10;;
75716;SDS011;64333;50.138;14.332;2023-12-28T07:45:01;2.42;;;1.83;;
75716;SDS011;64333;50.138;14.332;2023-12-28T07:47:27;2.67;;;1.67;;
75716;SDS011;64333;50.138;14.332;2023-12-28T07:49:52;3.70;;;2.47;;
75716;SDS011;64333;50.138;14.332;2023-12-28T07:52:18;3.00;;;1.98;;
75716;SDS011;64333;50.138;14.332;2023-12-28T07:54:43;6.45;;;3.03;;
75716;SDS011;64333;50.138;14.332;2023-12-28T07:57:09;5.53;;;2.92;;
75716;SDS011;64333;50.138;14.332;2023-12-28T07:59:34;4.38;;;2.22;;
75716;SDS011;64333;50.138;14.332;2023-12-28T08:01:59;3.72;;;2.35;;
75716;SDS011;64333;50.138;14.332;2023-12-28T08:04:25;6.32;;;2.85;;
75716;SDS011;64333;50.138;14.332;2023-12-28T08:06:50;6.25;;;3.10;;
75716;SDS011;64333;50.138;14.332;2023-12-28T08:09:16;3.85;;;2.40;;
75716;SDS011;64333;50.138;14.332;2023-12-28T08:11:41;6.25;;;2.90;;
75716;SDS011;64333;50.138;14.332;2023-12-28T08:14:07;5.65;;;3.10;;
75716;SDS011;64333;50.138;14.332;2023-12-28T08:16:32;5.03;;;2.58;;
75716;SDS011;64333;50.138;14.332;2023-12-28T08:18:57;4.50;;;2.78;;
75716;SDS011;64333;50.138;14.332;2023-12-28T08:21:23;3.67;;;1.90;;
75716;SDS011;64333;50.138;14.332;2023-12-28T08:23:48;4.70;;;2.00;;
75716;SDS011;64333;50.138;14.332;2023-12-28T08:26:14;2.35;;;1.67;;
75716;SDS011;64333;50.138;14.332;2023-12-28T08:28:39;3.80;;;2.45;;
75716;SDS011;64333;50.138;14.332;2023-12-28T08:31:05;2.80;;;1.90;;
75716;SDS011;64333;50.138;14.332;2023-12-28T08:33:32;3.95;;;2.00;;
75716;SDS011;64333;50.138;14.332;2023-12-28T08:35:58;2.72;;;2.00;;
75716;SDS011;64333;50.138;14.332;2023-12-28T08:38:23;3.20;;;1.95;;
75716;SDS011;64333;50.138;14.332;2023-12-28T08:40:49;3.30;;;2.28;;
75716;SDS011;64333;50.138;14.332;2023-12-28T08:43:14;3.40;;;2.03;;
75716;SDS011;64333;50.138;14.332;2023-12-28T08:45:39;5.20;;;2.35;;
75716;SDS011;64333;50.138;14.332;2023-12-28T08:48:05;2.20;;;1.67;;
75716;SDS011;64333;50.138;14.332;2023-12-28T08:50:30;3.28;;;2.08;;
75716;SDS011;64333;50.138;14.332;2023-12-28T08:52:56;3.20;;;2.00;;
75716;SDS011;64333;50.138;14.332;2023-12-28T08:55:21;2.35;;;1.40;;
75716;SDS011;64333;50.138;14.332;2023-12-28T08:57:47;2.75;;;1.75;;
75716;SDS011;64333;50.138;14.332;2023-12-28T09:00:13;3.90;;;1.67;;
75716;SDS011;64333;50.138;14.332;2023-12-28T09:02:40;4.60;;;1.60;;
75716;SDS011;64333;50.138;14.332;2023-12-28T09:05:06;2.67;;;1.80;;
75716;SDS011;64333;50.138;14.332;2023-12-28T09:07:31;2.50;;;1.70;;
75716;SDS011;64333;50.138;14.332;2023-12-28T09:09:57;2.40;;;1.55;;
75716;SDS011;64333;50.138;14.332;2023-12-28T09:12:22;3.38;;;1.50;;
75716;SDS011;64333;50.138;14.332;2023-12-28T09:14:48;2.83;;;1.73;;
75716;SDS011;64333;50.138;14.332;2023-12-28T09:17:13;3.90;;;1.75;;
75716;SDS011;64333;50.138;14.332;2023-12-28T09:19:39;2.42;;;1.30;;
75716;SDS011;64333;50.138;14.332;2023-12-28T09:22:06;2.67;;;1.65;;
75716;SDS011;64333;50.138;14.332;2023-12-28T09:24:31;1.90;;;1.20;;
75716;SDS011;64333;50.138;14.332;2023-12-28T09:26:56;2.50;;;1.50;;
75716;SDS011;64333;50.138;14.332;2023-12-28T09:29:22;3.15;;;1.52;;
75716;SDS011;64333;50.138;14.332;2023-12-28T09:31:47;2.33;;;1.30;;
75716;SDS011;64333;50.138;14.332;2023-12-28T09:34:13;2.97;;;1.90;;
75716;SDS011;64333;50.138;14.332;2023-12-28T09:36:38;2.67;;;1.35;;
75716;SDS011;64333;50.138;14.332;2023-12-28T09:39:03;2.50;;;1.45;;
75716;SDS011;64333;50.138;14.332;2023-12-28T09:41:31;4.80;;;1.40;;
75716;SDS011;64333;50.138;14.332;2023-12-28T09:44:07;3.65;;;1.80;;
75716;SDS011;64333;50.138;14.332;2023-12-28T09:46:36;2.72;;;1.48;;
75716;SDS011;64333;50.138;14.332;2023-12-28T09:49:01;3.42;;;1.80;;
75716;SDS011;64333;50.138;14.332;2023-12-28T09:51:27;2.75;;;1.45;;
75716;SDS011;64333;50.138;14.332;2023-12-28T09:53:53;2.67;;;1.85;;
75716;SDS011;64333;50.138;14.332;2023-12-28T09:56:19;2.85;;;1.50;;
75716;SDS011;64333;50.138;14.332;2023-12-28T09:58:46;2.88;;;1.67;;
75716;SDS011;64333;50.138;14.332;2023-12-28T10:01:14;2.47;;;1.60;;
75716;SDS011;64333;50.138;14.332;2023-12-28T10:03:40;2.40;;;1.30;;
75716;SDS011;64333;50.138;14.332;2023-12-28T10:06:05;3.08;;;1.67;;
75716;SDS011;64333;50.138;14.332;2023-12-28T10:08:30;2.85;;;1.45;;
75716;SDS011;64333;50.138;14.332;2023-12-28T10:10:56;2.35;;;1.30;;
75716;SDS011;64333;50.138;14.332;2023-12-28T10:13:24;1.95;;;1.30;;
75716;SDS011;64333;50.138;14.332;2023-12-28T10:15:50;2.08;;;1.48;;
75716;SDS011;64333;50.138;14.332;2023-12-28T10:18:18;3.08;;;1.90;;
75716;SDS011;64333;50.138;14.332;2023-12-28T10:20:50;3.42;;;1.77;;
75716;SDS011;64333;50.138;14.332;2023-12-28T10:23:17;5.88;;;2.72;;
75716;SDS011;64333;50.138;14.332;2023-12-28T10:25:43;3.83;;;1.80;;
75716;SDS011;64333;50.138;14.332;2023-12-28T10:28:10;1.73;;;1.05;;
75716;SDS011;64333;50.138;14.332;2023-12-28T10:30:37;3.25;;;1.85;;
75716;SDS011;64333;50.138;14.332;2023-12-28T10:33:06;4.22;;;1.77;;
75716;SDS011;64333;50.138;14.332;2023-12-28T10:35:32;2.65;;;1.85;;
75716;SDS011;64333;50.138;14.332;2023-12-28T10:37:59;4.40;;;1.23;;
75716;SDS011;64333;50.138;14.332;2023-12-28T10:40:27;3.58;;;1.60;;
75716;SDS011;64333;50.138;14.332;2023-12-28T10:42:54;2.75;;;1.30;;
75716;SDS011;64333;50.138;14.332;2023-12-28T10:45:25;2.83;;;1.35;;
75716;SDS011;64333;50.138;14.332;2023-12-28T10:47:56;2.08;;;1.30;;
75716;SDS011;64333;50.138;14.332;2023-12-28T10:50:54;2.75;;;1.80;;
75716;SDS011;64333;50.138;14.332;2023-12-28T10:53:33;4.32;;;3.28;;
75716;SDS011;64333;50.138;14.332;2023-12-28T11:01:10;5.18;;;1.80;;
75716;SDS011;64333;50.138;14.332;2023-12-28T11:03:39;5.90;;;2.90;;
75716;SDS011;64333;50.138;14.332;2023-12-28T11:06:08;3.80;;;2.90;;
75716;SDS011;64333;50.138;14.332;2023-12-28T11:08:35;2.83;;;1.80;;
75716;SDS011;64333;50.138;14.332;2023-12-28T11:11:02;6.68;;;2.65;;
75716;SDS011;64333;50.138;14.332;2023-12-28T11:13:30;3.63;;;1.40;;
75716;SDS011;64333;50.138;14.332;2023-12-28T11:15:58;2.63;;;1.70;;
75716;SDS011;64333;50.138;14.332;2023-12-28T11:18:25;3.08;;;1.42;;
75716;SDS011;64333;50.138;14.332;2023-12-28T11:20:53;2.20;;;1.27;;
75716;SDS011;64333;50.138;14.332;2023-12-28T11:23:18;1.83;;;1.30;;
75716;SDS011;64333;50.138;14.332;2023-12-28T11:25:44;3.30;;;1.48;;
75716;SDS011;64333;50.138;14.332;2023-12-28T11:28:11;2.15;;;1.20;;
75716;SDS011;64333;50.138;14.332;2023-12-28T11:30:37;1.55;;;1.27;;
75716;SDS011;64333;50.138;14.332;2023-12-28T11:33:06;1.48;;;0.98;;
75716;SDS011;64333;50.138;14.332;2023-12-28T11:35:41;1.50;;;1.13;;
75716;SDS011;64333;50.138;14.332;2023-12-28T11:38:08;3.63;;;1.63;;
75716;SDS011;64333;50.138;14.332;2023-12-28T11:40:41;2.25;;;1.30;;
75716;SDS011;64333;50.138;14.332;2023-12-28T11:43:14;2.60;;;1.20;;
75716;SDS011;64333;50.138;14.332;2023-12-28T11:45:50;1.92;;;1.10;;
75716;SDS011;64333;50.138;14.332;2023-12-28T11:48:26;2.08;;;1.60;;
75716;SDS011;64333;50.138;14.332;2023-12-28T11:50:54;1.70;;;1.25;;
75716;SDS011;64333;50.138;14.332;2023-12-28T11:53:22;1.92;;;1.10;;
75716;SDS011;64333;50.138;14.332;2023-12-28T11:55:48;1.40;;;1.08;;
75716;SDS011;64333;50.138;14.332;2023-12-28T11:58:15;2.08;;;1.30;;
75716;SDS011;64333;50.138;14.332;2023-12-28T12:00:44;4.13;;;2.17;;
75716;SDS011;64333;50.138;14.332;2023-12-28T12:03:13;2.75;;;1.70;;
75716;SDS011;64333;50.138;14.332;2023-12-28T12:05:39;2.25;;;1.60;;
75716;SDS011;64333;50.138;14.332;2023-12-28T12:08:05;2.03;;;1.60;;
75716;SDS011;64333;50.138;14.332;2023-12-28T12:10:33;3.38;;;1.42;;
75716;SDS011;64333;50.138;14.332;2023-12-28T12:12:59;2.47;;;1.88;;
75716;SDS011;64333;50.138;14.332;2023-12-28T12:15:25;2.65;;;1.65;;
75716;SDS011;64333;50.138;14.332;2023-12-28T12:17:50;2.22;;;1.40;;
75716;SDS011;64333;50.138;14.332;2023-12-28T12:20:16;3.17;;;1.77;;
75716;SDS011;64333;50.138;14.332;2023-12-28T12:22:41;2.33;;;1.42;;
75716;SDS011;64333;50.138;14.332;2023-12-28T12:25:07;2.70;;;1.60;;
75716;SDS011;64333;50.138;14.332;2023-12-28T12:27:34;3.00;;;2.15;;
75716;SDS011;64333;50.138;14.332;2023-12-28T12:30:03;4.45;;;1.75;;
75716;SDS011;64333;50.138;14.332;2023-12-28T12:32:29;2.83;;;1.55;;
75716;SDS011;64333;50.138;14.332;2023-12-28T12:34:54;1.90;;;1.40;;
75716;SDS011;64333;50.138;14.332;2023-12-28T12:37:20;2.45;;;1.20;;
75716;SDS011;64333;50.138;14.332;2023-12-28T12:39:46;1.83;;;1.30;;
75716;SDS011;64333;50.138;14.332;2023-12-28T12:42:16;2.60;;;1.55;;
75716;SDS011;64333;50.138;14.332;2023-12-28T12:44:45;1.92;;;1.00;;
75716;SDS011;64333;50.138;14.332;2023-12-28T12:47:12;1.30;;;0.93;;
75716;SDS011;64333;50.138;14.332;2023-12-28T12:49:38;2.33;;;1.13;;
75716;SDS011;64333;50.138;14.332;2023-12-28T12:52:03;2.65;;;1.60;;
75716;SDS011;64333;50.138;14.332;2023-12-28T12:54:29;3.25;;;1.73;;
75716;SDS011;64333;50.138;14.332;2023-12-28T12:56:54;2.15;;;1.35;;
75716;SDS011;64333;50.138;14.332;2023-12-28T12:59:21;2.00;;;1.20;;
75716;SDS011;64333;50.138;14.332;2023-12-28T13:01:47;1.92;;;1.23;;
75716;SDS011;64333;50.138;14.332;2023-12-28T13:04:17;4.22;;;1.98;;
75716;SDS011;64333;50.138;14.332;2023-12-28T13:06:43;2.15;;;1.45;;
75716;SDS011;64333;50.138;14.332;2023-12-28T13:09:08;2.47;;;1.33;;
75716;SDS011;64333;50.138;14.332;2023-12-28T13:11:35;2.47;;;1.52;;
75716;SDS011;64333;50.138;14.332;2023-12-28T13:14:01;2.50;;;1.40;;
75716;SDS011;64333;50.138;14.332;2023-12-28T13:16:26;2.40;;;1.80;;
75716;SDS011;64333;50.138;14.332;2023-12-28T13:18:52;1.65;;;1.10;;
75716;SDS011;64333;50.138;14.332;2023-12-28T13:21:17;2.28;;;1.45;;
75716;SDS011;64333;50.138;14.332;2023-12-28T13:23:43;1.60;;;1.17;;
75716;SDS011;64333;50.138;14.332;2023-12-28T13:26:08;1.98;;;1.33;;
75716;SDS011;64333;50.138;14.332;2023-12-28T13:28:34;1.67;;;1.15;;
75716;SDS011;64333;50.138;14.332;2023-12-28T13:30:59;1.33;;;1.02;;
75716;SDS011;64333;50.138;14.332;2023-12-28T13:33:25;1.77;;;1.30;;
75716;SDS011;64333;50.138;14.332;2023-12-28T13:35:50;2.20;;;1.20;;
75716;SDS011;64333;50.138;14.332;2023-12-28T13:38:15;1.70;;;1.00;;
75716;SDS011;64333;50.138;14.332;2023-12-28T13:40:41;2.45;;;1.27;;
75716;SDS011;64333;50.138;14.332;2023-12-28T13:43:07;2.05;;;1.15;;
75716;SDS011;64333;50.138;14.332;2023-12-28T13:45:32;1.60;;;1.20;;
75716;SDS011;64333;50.138;14.332;2023-12-28T13:47:58;2.95;;;1.73;;
75716;SDS011;64333;50.138;14.332;2023-12-28T13:50:24;2.22;;;1.58;;
75716;SDS011;64333;50.138;14.332;2023-12-28T13:52:49;1.80;;;1.20;;
75716;SDS011;64333;50.138;14.332;2023-12-28T13:55:15;2.05;;;1.15;;
75716;SDS011;64333;50.138;14.332;2023-12-28T13:57:40;2.90;;;1.40;;
75716;SDS011;64333;50.138;14.332;2023-12-28T14:00:06;3.00;;;1.38;;
75716;SDS011;64333;50.138;14.332;2023-12-28T14:02:32;2.00;;;1.50;;
75716;SDS011;64333;50.138;14.332;2023-12-28T14:04:58;1.50;;;1.20;;
75716;SDS011;64333;50.138;14.332;2023-12-28T14:07:23;1.98;;;1.50;;
75716;SDS011;64333;50.138;14.332;2023-12-28T14:09:49;2.08;;;1.23;;
75716;SDS011;64333;50.138;14.332;2023-12-28T14:12:15;2.20;;;1.75;;
75716;SDS011;64333;50.138;14.332;2023-12-28T14:14:41;1.70;;;1.33;;
75716;SDS011;64333;50.138;14.332;2023-12-28T14:17:06;2.50;;;1.70;;
75716;SDS011;64333;50.138;14.332;2023-12-28T14:19:32;2.13;;;1.60;;
75716;SDS011;64333;50.138;14.332;2023-12-28T14:21:57;1.98;;;1.50;;
75716;SDS011;64333;50.138;14.332;2023-12-28T14:24:23;3.58;;;1.85;;
75716;SDS011;64333;50.138;14.332;2023-12-28T14:26:50;3.55;;;2.03;;
75716;SDS011;64333;50.138;14.332;2023-12-28T14:29:19;4.15;;;2.10;;